Evans City, Pennsylvania
Current Conditions -  °F | °C
As of 3:55 PM on Tuesday 21 Oct 2014 (Local Time) from KBTP Reporting Station
Broken Clouds Broken Clouds  
Wind Chill: 46°   Ceiling: 3800
Heat Index: 48°   Visibility: 10mi
Dew Point: 45°   Wind: 6mph
Humidity: 87%   Direction: 320°NW
Pressure: 29.92"   Gusts: NA
Location:  40.77°N, 80.06°W
Report Text: KBTP 211955Z AUTO 32005KT 10SM FEW013 SCT024 BKN038 09/07 A2992 RMK AO1 P0001
Loading
Personal Weather Stations






























Interactive Weather Map
Tropical Storm Tracking
New forecast layout! Learn more

10-Day Weather Forecast

Advertisements
Track Severe Weather on mobile